This is the latest recevied weather packets stored in our database for station/object W2SBL-1. If no packets are shown the sender has not sent any weather packets the latest 10 day(s).
| Time | Temp. | Humidity | Pressure | Rain* | Wind** | Luminosity | Snow |
|---|---|---|---|---|---|---|---|
| 1788316100 | 23.33° C | 60% | 1016.5 hPa | - | - | - | - |
| 1788315200 | 23.33° C | 61% | 1016.4 hPa | - | - | - | - |
| 1788314300 | 23.33° C | 60% | 1016 hPa | - | - | - | - |
| 1788313400 | 23.89° C | 60% | 1016 hPa | - | - | - | - |
| 1788312500 | 23.89° C | 60% | 1015.8 hPa | - | - | - | - |
| 1788311600 | 24.44° C | 60% | 1015.4 hPa | - | - | - | - |
| 1788310700 | 25° C | 60% | 1015.4 hPa | - | - | - | - |
| 1788309799 | 25° C | 60% | 1015 hPa | - | - | - | - |
| 1788308899 | 25.56° C | 59% | 1015 hPa | - | - | - | - |
| 1788307999 | 26.11° C | 59% | 1014.7 hPa | - | - | - | - |
| 1788307099 | 26.67° C | 59% | 1014.6 hPa | - | - | - | - |
| 1788306220 | 26.67° C | 59% | 1014.5 hPa | - | - | - | - |
| 1788305329 | 27.22° C | 59% | 1014.5 hPa | - | - | - | - |
| 1788304399 | 27.22° C | 59% | 1014.2 hPa | - | - | - | - |
| 1788303499 | 27.22° C | 59% | 1014.1 hPa | - | - | - | - |
| 1788302599 | 27.78° C | 59% | 1014 hPa | - | - | - | - |
| 1788301699 | 19.44° C | 57% | 1001.1 hPa | - | - | - | - |
| 1788300799 | 28.33° C | 58% | 1013.9 hPa | - | - | - | - |
| 1788299899 | 28.89° C | 58% | 1014 hPa | - | - | - | - |
| 1788298999 | 28.89° C | 57% | 1013.8 hPa | - | - | - | - |
| 1788298099 | 28.89° C | 57% | 1014 hPa | - | - | - | - |
| 1788297199 | 29.44° C | 58% | 1014.1 hPa | - | - | - | - |
| 1788296298 | 30° C | 56% | 1014.1 hPa | - | - | - | - |
| 1788295398 | 31.11° C | 55% | 1014 hPa | - | - | - | - |
| 1788294498 | 31.11° C | 55% | 1013.8 hPa | - | - | - | - |
* Rain since midnight (hover to see other rain measurements)
** Current wind speed in m/s (hover to see current wind gust speed)